Time;durP1;ratioP1;P1;durP2;ratioP2;P2;SDS_P1;SDS_P2;PMS_P1;PMS_P2;Temp;Humidity;BMP_temperature;BMP_pressure;BME280_temperature;BME280_humidity;BME280_pressure;Samples;Min_cycle;Max_cycle;Signal;HPM_P1;HPM_P2
2021/09/13 00:02:28;;;;;;;;;;;;;;;;;;;;;
2021/09/13 00:05:39;;;;;;;;;;;;;;;;;;;;;
2021/09/13 00:09:10;;;;;;;;;;;;;;;;;;;;;
2021/09/13 00:12:28;;;;;;;7.50;5.50;;;;;;;24.54;45.75;100722.34;110179;1241;74762;-91
2021/09/13 00:15:37;;;;;;;7.40;5.50;;;;;;;24.54;45.70;100725.59;110199;1242;61790;-88
2021/09/13 00:19:28;;;;;;;7.40;5.60;;;;;;;24.54;45.88;100724.87;110285;1241;60367;-88
2021/09/13 00:23:14;;;;;;;7.30;5.60;;;;;;;24.54;45.69;100726.32;110585;1235;71255;-95
2021/09/13 00:25:38;;;;;;;7.60;5.30;;;;;;;24.55;45.82;100722.14;111016;1233;74603;-88
2021/09/13 00:29:04;;;;;;;7.50;5.70;;;;;;;24.55;45.71;100721.58;111126;1225;60161;-82
2021/09/13 00:32:28;;;;;;;7.50;5.50;;;;;;;24.54;45.83;100724.33;111073;1229;62247;-90
2021/09/13 00:43:38;;;;;;;7.70;6.10;;;;;;;24.54;45.87;100720.02;110405;1234;60423;-88
2021/09/13 00:50:42;;;;;;;;;;;;;;;;;;;;;
2021/09/13 00:53:49;;;;;;;8.30;5.40;;;;;;;24.54;45.73;100718.73;108859;1254;73613;-90
2021/09/13 00:56:50;;;;;;;;;;;;;;;;;;;;;
2021/09/13 01:00:21;;;;;;;7.90;5.60;;;;;;;24.55;45.82;100713.84;108837;1254;60392;-88
2021/09/13 01:07:06;;;;;;;8.00;5.40;;;;;;;24.57;45.77;100716.66;112409;1218;600140;-93
2021/09/13 01:10:22;;;;;;;7.30;5.60;;;;;;;24.55;45.81;100716.33;112525;1217;73025;-92
2021/09/13 01:13:19;;;;;;;6.80;4.90;;;;;;;24.56;45.80;100715.73;112512;1215;59691;-90
2021/09/13 01:16:19;;;;;;;7.30;5.60;;;;;;;24.55;45.88;100722.27;112104;1217;61258;-93
2021/09/13 01:19:15;;;;;;;;;;;;;;;;;;;;;
2021/09/13 01:22:28;;;;;;;6.90;5.60;;;;;;;24.55;45.81;100718.69;111787;1220;71957;-81
2021/09/13 01:26:06;;;;;;;8.10;5.90;;;;;;;24.54;45.80;100720.52;111390;1227;60866;-83
2021/09/13 01:28:59;;;;;;;7.60;5.60;;;;;;;24.54;45.77;100717.14;111020;1227;59944;-86
2021/09/13 01:32:40;;;;;;;7.60;5.20;;;;;;;24.54;45.93;100720.58;111036;1234;73148;-81
2021/09/13 01:35:16;;;;;;;;;;;;;;;;;;;;;
2021/09/13 01:38:23;;;;;;;8.20;5.70;;;;;;;24.53;45.96;100720.65;110353;1233;60420;-83
2021/09/13 01:41:48;;;;;;;9.00;6.00;;;;;;;24.54;45.86;100724.58;110275;1240;59397;-87
2021/09/13 01:45:06;;;;;;;7.20;5.10;;;;;;;24.53;45.91;100723.90;110331;1234;73567;-80
2021/09/13 01:48:32;;;;;;;9.90;5.70;;;;;;;24.53;45.78;100723.92;110322;1237;74867;-80
2021/09/13 01:51:51;;;;;;;;;;;;;;;;;;;;;
2021/09/13 01:55:00;;;;;;;;;;;;;;;;;;;;;
2021/09/13 01:58:04;;;;;;;7.60;5.90;;;;;;;24.52;45.98;100725.58;110120;1244;71385;-88
2021/09/13 02:01:19;;;;;;;8.30;5.20;;;;;;;24.53;46.00;100723.89;110332;1235;73997;-85
2021/09/13 02:04:22;;;;;;;9.20;5.50;;;;;;;24.52;45.94;100727.19;110637;1235;60359;-87
2021/09/13 02:07:29;;;;;;;8.50;5.30;;;;;;;24.51;45.95;100720.62;110855;1237;60753;-90
2021/09/13 02:11:05;;;;;;;;;;;;;;;;;;;;;
2021/09/13 02:14:10;;;;;;;;;;;;;;;;;;;;;
2021/09/13 02:17:28;;;;;;;;;;;;;;;;;;;;;
2021/09/13 02:20:54;;;;;;;;;;;;;;;;;;;;;
2021/09/13 02:23:53;;;;;;;;;;;;;;;;;;;;;
2021/09/13 02:27:02;;;;;;;8.50;5.70;;;;;;;24.52;45.96;100727.08;111029;1232;74204;-88
2021/09/13 02:30:06;;;;;;;;;;;;;;;;;;;;;
2021/09/13 02:33:32;;;;;;;;;;;;;;;;;;;;;
2021/09/13 02:36:54;;;;;;;7.80;5.40;;;;;;;24.49;45.95;100726.39;111040;1231;71318;-89
2021/09/13 02:40:15;;;;;;;7.40;5.40;;;;;;;24.49;45.93;100726.73;110579;1231;71729;-87
2021/09/13 02:43:13;;;;;;;8.30;5.20;;;;;;;24.49;45.94;100729.62;110342;1242;61125;-90
2021/09/13 02:46:54;;;;;;;7.30;5.20;;;;;;;24.50;46.03;100732.13;110552;1234;60149;-88
2021/09/13 02:49:48;;;;;;;8.20;5.40;;;;;;;24.50;46.10;100729.39;110086;1244;71200;-83
2021/09/13 02:53:05;;;;;;;;;;;;;;;;;;;;;
2021/09/13 02:56:25;;;;;;;;;;;;;;;;;;;;;
2021/09/13 02:59:32;;;;;;;6.80;5.50;;;;;;;24.50;46.06;100733.55;110099;1244;60033;-87
2021/09/13 03:02:48;;;;;;;;;;;;;;;;;;;;;
2021/09/13 03:06:26;;;;;;;9.00;5.10;;;;;;;24.49;45.77;100735.55;110082;1245;72858;-84
2021/09/13 03:09:52;;;;;;;7.40;5.70;;;;;;;24.50;45.93;100735.53;110321;1242;59436;-89
2021/09/13 03:12:34;;;;;;;;;;;;;;;;;;;;;
2021/09/13 03:16:07;;;;;;;8.80;5.70;;;;;;;24.49;45.92;100737.89;110166;1243;71239;-85
2021/09/13 03:19:38;;;;;;;7.50;5.60;;;;;;;24.50;45.86;100741.27;110370;1234;74146;-82
2021/09/13 03:22:19;;;;;;;;;;;;;;;;;;;;;
2021/09/13 03:25:14;;;;;;;8.40;6.10;;;;;;;24.50;45.90;100740.02;110111;1237;61214;-89
2021/09/13 03:28:14;;;;;;;8.50;5.50;;;;;;;24.50;45.70;100738.21;110105;1244;72649;-89
2021/09/13 03:31:40;;;;;;;7.40;5.50;;;;;;;24.50;45.84;100740.21;110125;1243;72755;-86
2021/09/13 03:35:08;;;;;;;;;;;;;;;;;;;;;
2021/09/13 03:38:17;;;;;;;8.00;6.00;;;;;;;24.49;45.85;100742.60;110082;1239;60844;-89
2021/09/13 03:41:17;;;;;;;;;;;;;;;;;;;;;
2021/09/13 03:44:23;;;;;;;7.60;5.60;;;;;;;24.49;46.02;100745.84;109822;1248;71676;-82
2021/09/13 03:47:52;;;;;;;9.20;5.90;;;;;;;24.48;45.92;100748.38;109854;1248;60029;-85
2021/09/13 03:51:19;;;;;;;7.40;5.60;;;;;;;24.48;45.78;100746.42;109359;1244;61513;-82
2021/09/13 03:54:27;;;;;;;9.30;6.20;;;;;;;24.48;45.78;100751.29;109618;1250;73418;-88
2021/09/13 03:57:53;;;;;;;8.90;6.00;;;;;;;24.47;45.69;100752.69;108729;1256;71684;-88
2021/09/13 04:01:02;;;;;;;7.20;5.40;;;;;;;24.45;45.47;100757.14;108875;1254;60560;-86
2021/09/13 04:04:20;;;;;;;11.70;6.20;;;;;;;24.43;45.34;100757.51;109229;1252;59468;-88
2021/09/13 04:08:37;;;;;;;10.30;6.40;;;;;;;24.42;45.07;100762.27;109194;1252;74110;-80
2021/09/13 04:11:16;;;;;;;;;;;;;;;;;;;;;
2021/09/13 04:14:18;;;;;;;10.10;6.10;;;;;;;24.37;44.78;100763.06;108932;1254;60067;-88
2021/09/13 04:17:25;;;;;;;10.00;7.00;;;;;;;24.35;44.34;100765.38;108982;1246;60660;-85
2021/09/13 04:20:32;;;;;;;9.70;6.80;;;;;;;24.32;44.37;100764.94;109514;1244;72408;-88
2021/09/13 04:23:56;;;;;;;;;;;;;;;;;;;;;
2021/09/13 04:27:13;;;;;;;;;;;;;;;;;;;;;
2021/09/13 04:30:20;;;;;;;10.90;6.70;;;;;;;24.23;43.34;100766.94;110192;1243;60489;-88
2021/09/13 04:33:21;;;;;;;;;;;;;;;;;;;;;
2021/09/13 04:36:37;;;;;;;11.80;7.20;;;;;;;24.20;42.97;100766.64;110106;1244;73773;-87
2021/09/13 04:40:13;;;;;;;;;;;;;;;;;;;;;
2021/09/13 04:43:23;;;;;;;13.20;7.30;;;;;;;24.17;42.26;100764.07;109515;1244;61171;-84
2021/09/13 04:46:40;;;;;;;;;;;;;;;;;;;;;
2021/09/13 04:49:47;;;;;;;;;;;;;;;;;;;;;
2021/09/13 04:52:44;;;;;;;;;;;;;;;;;;;;;
2021/09/13 04:55:40;;;;;;;;;;;;;;;;;;;;;
2021/09/13 04:58:40;;;;;;;14.10;7.20;;;;;;;24.08;41.70;100773.06;109660;1248;73533;-84
2021/09/13 05:02:09;;;;;;;10.30;7.10;;;;;;;24.07;41.55;100775.83;109801;1247;74248;-82
2021/09/13 05:05:23;;;;;;;15.00;7.60;;;;;;;24.05;41.26;100770.05;109895;1246;59825;-84
2021/09/13 05:08:12;;;;;;;11.70;6.90;;;;;;;24.05;41.10;100776.17;109914;1244;61580;-82
2021/09/13 05:11:22;;;;;;;15.50;8.10;;;;;;;24.05;41.20;100775.86;109948;1244;73502;-80
2021/09/13 05:14:40;;;;;;;16.00;8.20;;;;;;;24.03;40.86;100780.88;109871;1240;73161;-87
2021/09/13 05:17:08;;;;;;;17.40;7.50;;;;;;;24.01;40.67;100779.58;110071;1231;59381;-86
2021/09/13 05:19:58;;;;;;;14.80;7.10;;;;;;;23.99;40.64;100783.16;110406;1231;61836;-79
2021/09/13 05:22:31;;;;;;;14.90;7.40;;;;;;;23.98;40.58;100778.02;110824;1224;74869;-81
2021/09/13 05:24:59;;;;;;;13.40;7.40;;;;;;;23.97;40.56;100780.63;110776;1228;72952;-80
2021/09/13 05:27:42;;;;;;;18.40;7.60;;;;;;;23.97;40.40;100782.41;110979;1228;60082;-82
2021/09/13 05:30:29;;;;;;;15.30;8.00;;;;;;;23.97;40.20;100781.16;110916;1225;59624;-81
2021/09/13 05:33:18;;;;;;;13.70;7.60;;;;;;;23.98;40.19;100783.77;110957;1224;71265;-82
2021/09/13 05:35:44;;;;;;;15.90;7.20;;;;;;;23.97;40.01;100784.91;110813;1224;73656;-81
2021/09/13 05:38:13;;;;;;;13.70;6.90;;;;;;;23.91;39.82;100784.73;110560;1223;59443;-81
2021/09/13 05:40:40;;;;;;;18.70;7.00;;;;;;;23.84;39.82;100781.19;110656;1224;61286;-82
2021/09/13 05:43:22;;;;;;;13.70;7.30;;;;;;;23.82;39.81;100783.81;110760;1231;73062;-81
2021/09/13 05:45:51;;;;;;;12.90;7.10;;;;;;;23.83;39.77;100786.48;111257;1222;73755;-80
2021/09/13 05:48:21;;;;;;;18.60;7.40;;;;;;;23.82;39.58;100787.78;111638;1219;60066;-80
2021/09/13 05:50:53;;;;;;;19.40;7.30;;;;;;;23.77;39.37;100786.95;112501;1216;61139;-80
2021/09/13 05:53:20;;;;;;;14.00;7.40;;;;;;;23.68;39.37;100789.63;111719;1216;72272;-80
2021/09/13 05:56:06;;;;;;;17.70;7.00;;;;;;;23.61;39.30;100788.26;111528;1219;72640;-81
2021/09/13 05:58:35;;;;;;;;;;;;;;;23.52;39.25;100792.37;111720;1218;60171;-79
2021/09/13 06:01:11;;;;;;;;;;;;;;;;;;;;;
2021/09/13 06:03:37;;;;;;;15.10;7.10;;;;;;;23.47;39.46;100793.86;112389;1216;72310;-79
2021/09/13 06:06:06;;;;;;;14.90;7.20;;;;;;;23.53;39.49;100796.81;112029;1222;59874;-81
2021/09/13 06:11:29;;;;;;;18.70;7.30;;;;;;;23.55;39.36;100798.98;111561;1226;59944;-81
2021/09/13 06:13:54;;;;;;;14.80;6.70;;;;;;;23.59;39.36;100798.83;111665;1219;60318;-81
2021/09/13 06:16:27;;;;;;;13.70;6.70;;;;;;;23.62;39.30;100797.86;111459;1224;60272;-84
2021/09/13 06:18:53;;;;;;;10.00;6.10;;;;;;;23.66;39.33;100798.48;111672;1218;61291;-81
2021/09/13 06:21:43;;;;;;;17.30;6.50;;;;;;;23.71;39.48;100798.75;111533;1226;60561;-81
2021/09/13 06:24:32;;;;;;;13.80;6.70;;;;;;;23.75;39.54;100802.94;111503;1228;73519;-81
2021/09/13 06:27:07;;;;;;;13.40;6.50;;;;;;;23.77;39.44;100803.33;111280;1221;72882;-81
2021/09/13 06:29:33;;;;;;;11.20;6.50;;;;;;;23.74;39.27;100804.11;111943;1224;60037;-80
2021/09/13 06:31:59;;;;;;;16.40;6.80;;;;;;;23.71;39.26;100805.60;111755;1222;58671;-80
2021/09/13 06:34:26;;;;;;;14.30;7.00;;;;;;;23.72;39.27;100804.07;111739;1221;58890;-80
2021/09/13 06:36:52;;;;;;;19.20;6.60;;;;;;;23.76;39.23;100805.70;111750;1222;58564;-80
2021/09/13 06:39:19;;;;;;;15.60;6.80;;;;;;;23.80;39.22;100808.25;111853;1222;58397;-80
2021/09/13 06:41:45;;;;;;;18.10;6.90;;;;;;;23.83;39.13;100808.70;111749;1223;58295;-80
2021/09/13 06:44:11;;;;;;;14.50;6.70;;;;;;;23.85;38.98;100812.13;111698;1221;58743;-80
2021/09/13 06:49:22;;;;;;;14.60;6.60;;;;;;;23.90;39.04;100816.07;111858;1221;60087;-80
2021/09/13 06:51:48;;;;;;;16.40;7.10;;;;;;;23.89;38.91;100816.52;111508;1223;60233;-85
2021/09/13 06:54:36;;;;;;;;;;;;;;;;;;;;;
2021/09/13 06:57:08;;;;;;;12.90;6.40;;;;;;;23.80;38.82;100821.16;110957;1225;74463;-81
2021/09/13 06:59:41;;;;;;;23.60;7.30;;;;;;;23.86;38.87;100822.33;110687;1230;60327;-81
2021/09/13 07:02:08;;;;;;;17.10;7.00;;;;;;;23.89;38.90;100823.58;110581;1223;61096;-79
2021/09/13 07:04:34;;;;;;;32.10;7.30;;;;;;;23.88;38.96;100824.48;112086;1219;58330;-79
2021/09/13 07:07:00;;;;;;;29.00;7.60;;;;;;;23.92;39.13;100824.39;112950;1215;66011;-80
2021/09/13 07:09:30;;;;;;;20.60;7.20;;;;;;;23.95;39.14;100826.81;112385;1215;59110;-81
2021/09/13 07:12:07;;;;;;;26.80;7.00;;;;;;;23.99;39.25;100826.84;111516;1214;60360;-81
2021/09/13 07:14:43;;;;;;;15.00;6.50;;;;;;;24.00;39.13;100824.64;111608;1221;73358;-85
2021/09/13 07:17:15;;;;;;;22.00;6.90;;;;;;;24.01;39.04;100826.45;111627;1214;74569;-81
2021/09/13 07:19:45;;;;;;;18.40;6.70;;;;;;;24.06;39.12;100826.29;111598;1222;60186;-81
2021/09/13 07:22:22;;;;;;;15.30;7.10;;;;;;;24.09;39.02;100825.98;111444;1214;60251;-82
2021/09/13 07:24:48;;;;;;;15.80;7.00;;;;;;;24.08;38.76;100826.97;111471;1222;72469;-83
2021/09/13 07:27:14;;;;;;;14.10;6.50;;;;;;;24.07;38.68;100829.95;111768;1212;60280;-81
2021/09/13 07:30:03;;;;;;;12.00;6.40;;;;;;;24.09;38.60;100830.32;111938;1213;60376;-83
2021/09/13 07:32:32;;;;;;;15.50;6.70;;;;;;;24.04;38.28;100826.77;112003;1219;60128;-81
2021/09/13 07:35:10;;;;;;;;;;;;;;;;;;;;;
2021/09/13 07:37:43;;;;;;;13.10;6.30;;;;;;;24.07;38.36;100826.20;111935;1215;74752;-83
2021/09/13 07:40:12;;;;;;;19.70;6.70;;;;;;;24.06;38.20;100830.40;112010;1219;60913;-84
2021/09/13 07:43:24;;;;;;;17.40;7.40;;;;;;;24.05;37.99;100831.05;112302;1211;60179;-80
2021/09/13 07:46:40;;;;;;;14.60;6.00;;;;;;;24.05;37.88;100835.81;112290;1212;71591;-81
2021/09/13 07:49:19;;;;;;;17.70;6.60;;;;;;;24.09;37.98;100831.36;111624;1225;73854;-81
2021/09/13 07:52:05;;;;;;;15.80;7.00;;;;;;;24.14;38.02;100828.52;111650;1218;60476;-81
2021/09/13 07:55:05;;;;;;;15.70;6.40;;;;;;;24.17;38.02;100832.92;111790;1217;59133;-80
2021/09/13 07:58:21;;;;;;;;;;;;;;;;;;;;;
2021/09/13 08:01:06;;;;;;;14.70;6.60;;;;;;;24.21;37.83;100831.86;111803;1218;74929;-84
2021/09/13 08:04:16;;;;;;;14.20;6.80;;;;;;;24.22;37.69;100833.73;111852;1218;61277;-82
2021/09/13 08:07:24;;;;;;;12.00;6.40;;;;;;;24.23;37.63;100832.94;111590;1221;60180;-82
2021/09/13 08:10:02;;;;;;;9.90;5.80;;;;;;;24.22;37.37;100834.45;111657;1219;72785;-81
2021/09/13 08:12:50;;;;;;;14.70;6.70;;;;;;;24.22;37.27;100838.41;111607;1222;73728;-82
2021/09/13 08:15:29;;;;;;;11.70;6.40;;;;;;;24.22;37.05;100837.73;111597;1219;60175;-82
2021/09/13 08:18:17;;;;;;;;;;;;;;;;;;;;;
2021/09/13 08:21:33;;;;;;;;;;;;;;;;;;;;;
2021/09/13 08:24:50;;;;;;;14.60;6.40;;;;;;;24.22;36.79;100843.28;112252;1223;72406;-85
2021/09/13 08:28:18;;;;;;;;;;;;;;;;;;;;;
2021/09/13 08:31:14;;;;;;;10.80;6.10;;;;;;;24.25;36.67;100844.48;111331;1231;60469;-83
2021/09/13 08:34:26;;;;;;;10.80;6.10;;;;;;;24.26;36.41;100847.78;111223;1231;73110;-80
2021/09/13 08:37:34;;;;;;;14.70;6.30;;;;;;;24.24;36.29;100844.72;110495;1229;74133;-83
2021/09/13 08:40:32;;;;;;;;;;;;;;;;;;;;;
2021/09/13 08:44:06;;;;;;;9.90;6.50;;;;;;;24.26;36.32;100837.50;110158;1241;61321;-83
2021/09/13 08:54:51;;;;;;;;;;;;;;;;;;;;;
2021/09/13 08:58:19;;;;;;;;;;;;;;;;;;;;;
2021/09/13 09:01:36;;;;;;;;;;;;;;;;;;;;;
2021/09/13 09:05:02;;;;;;;8.00;5.40;;;;;;;24.38;36.56;100820.50;109541;1248;74493;-84
2021/09/13 09:08:29;;;;;;;12.20;6.20;;;;;;;24.41;36.64;100818.45;109805;1241;63512;-88
2021/09/13 09:15:31;;;;;;;10.60;5.90;;;;;;;24.45;36.50;100815.96;110142;1242;73399;-81
2021/09/13 09:18:52;;;;;;;9.90;6.10;;;;;;;24.47;36.60;100812.79;110476;1238;72489;-86
2021/09/13 09:22:10;;;;;;;;;;;;;;;;;;;;;
2021/09/13 09:25:26;;;;;;;;;;;;;;;;;;;;;
2021/09/13 09:28:25;;;;;;;12.70;5.80;;;;;;;24.50;36.75;100806.58;110498;1236;72143;-82
2021/09/13 09:32:06;;;;;;;;;;;;;;;;;;;;;
2021/09/13 09:35:07;;;;;;;10.50;6.10;;;;;;;24.52;36.90;100797.01;110365;1239;60208;-82
2021/09/13 09:38:40;;;;;;;9.30;5.80;;;;;;;24.53;36.82;100797.30;110439;1230;61678;-80
2021/09/13 09:41:29;;;;;;;9.50;5.90;;;;;;;24.54;36.92;100795.80;110553;1230;73521;-85
2021/09/13 09:44:46;;;;;;;;;;;;;;;;;;;;;
2021/09/13 09:48:43;;;;;;;9.50;5.50;;;;;;;24.54;36.99;100803.30;110084;1234;60535;-87
2021/09/13 09:52:06;;;;;;;9.20;5.60;;;;;;;24.55;36.99;100795.84;110043;1236;60551;-87
2021/09/13 09:55:53;;;;;;;;;;;;;;;;;;;;;
2021/09/13 09:59:38;;;;;;;8.20;5.30;;;;;;;24.55;36.59;100795.10;109211;1243;72476;-85
2021/09/13 10:02:32;;;;;;;9.20;5.30;;;;;;;24.56;36.63;100791.07;108809;1247;60426;-80
2021/09/13 10:05:55;;;;;;;;;;;;;;;;;;;;;
2021/09/13 10:08:39;;;;;;;9.20;6.00;;;;;;;24.57;36.58;100788.48;109328;1241;72417;-83
2021/09/13 10:11:25;;;;;;;10.80;5.90;;;;;;;24.58;36.68;100785.91;109473;1246;73485;-86
2021/09/13 10:14:04;;;;;;;;;;;;;;;;;;;;;
2021/09/13 10:17:09;;;;;;;10.40;5.30;;;;;;;24.59;36.66;100781.12;109803;1247;60337;-82
2021/09/13 10:20:17;;;;;;;9.60;5.70;;;;;;;24.59;36.57;100777.52;109793;1241;72557;-85
2021/09/13 10:23:16;;;;;;;;;;;;;;;;;;;;;
2021/09/13 10:26:11;;;;;;;;;;;;;;;;;;;;;
2021/09/13 10:29:26;;;;;;;8.70;6.00;;;;;;;24.59;36.40;100775.38;110740;1233;60218;-80
2021/09/13 10:32:42;;;;;;;8.10;5.80;;;;;;;24.58;36.49;100769.46;110689;1230;71147;-81
2021/09/13 10:36:29;;;;;;;9.20;5.80;;;;;;;24.59;36.43;100766.38;111185;1222;73514;-82
2021/09/13 10:39:35;;;;;;;;;;;;;;;;;;;;;
2021/09/13 10:42:44;;;;;;;;;;;;;;;;;;;;;
2021/09/13 10:46:57;;;;;;;10.00;5.70;;;;;;;24.60;36.62;100763.94;110927;1233;71142;-87
2021/09/13 10:49:58;;;;;;;10.70;6.20;;;;;;;24.59;36.69;100760.92;110588;1230;72521;-82
2021/09/13 10:53:14;;;;;;;11.30;5.80;;;;;;;24.60;36.73;100760.13;110405;1239;60332;-86
2021/09/13 10:56:26;;;;;;;7.80;5.40;;;;;;;24.61;36.76;100758.09;110319;1233;62165;-87
2021/09/13 10:59:32;;;;;;;11.90;5.90;;;;;;;24.62;36.78;100754.26;110213;1233;72522;-85
2021/09/13 11:02:31;;;;;;;9.50;5.60;;;;;;;24.64;36.82;100752.16;110204;1233;73654;-84
2021/09/13 11:05:38;;;;;;;11.60;5.70;;;;;;;24.64;36.84;100744.92;110274;1240;61294;-82
2021/09/13 11:09:07;;;;;;;10.60;5.90;;;;;;;24.64;36.84;100744.98;109981;1236;59128;-82
2021/09/13 11:12:25;;;;;;;9.00;5.80;;;;;;;24.63;36.88;100740.37;109955;1239;72452;-83
2021/09/13 11:15:55;;;;;;;10.00;5.50;;;;;;;24.63;36.94;100733.67;110157;1242;74688;-85
2021/09/13 11:18:53;;;;;;;9.40;5.90;;;;;;;24.63;36.79;100735.09;110060;1244;60199;-79
2021/09/13 11:22:55;;;;;;;9.10;5.30;;;;;;;24.63;36.73;100731.52;109864;1240;60379;-85
2021/09/13 11:25:46;;;;;;;;;;;;;;;;;;;;;
2021/09/13 11:29:33;;;;;;;9.70;5.80;;;;;;;24.63;36.92;100721.05;109063;1251;72464;-89
2021/09/13 11:32:44;;;;;;;9.00;5.70;;;;;;;24.65;36.93;100716.05;109065;1252;60159;-83
2021/09/13 11:35:40;;;;;;;10.50;5.90;;;;;;;24.65;36.88;100721.83;109075;1252;61479;-92
2021/09/13 11:42:19;;;;;;;9.20;5.60;;;;;;;24.66;37.11;100718.88;109170;1251;72416;-85
2021/09/13 11:45:36;;;;;;;;;;;;;;;;;;;;;
2021/09/13 11:48:37;;;;;;;8.50;5.20;;;;;;;24.66;37.13;100717.97;108729;1253;60335;-87
2021/09/13 11:51:26;;;;;;;12.80;5.70;;;;;;;24.66;37.28;100708.93;109285;1250;72257;-82
2021/09/13 11:54:49;;;;;;;8.10;5.60;;;;;;;24.66;37.13;100706.05;109328;1251;75064;-85
2021/09/13 11:58:06;;;;;;;8.80;5.60;;;;;;;24.66;37.20;100700.27;109483;1242;61251;-83
2021/09/13 12:01:03;;;;;;;11.90;6.10;;;;;;;24.67;37.09;100697.86;109345;1250;61175;-79
2021/09/13 12:04:00;;;;;;;;;;;;;;;;;;;;;
2021/09/13 12:07:24;;;;;;;10.80;5.70;;;;;;;24.67;37.46;100686.52;109930;1242;73675;-81
2021/09/13 12:10:12;;;;;;;9.80;5.40;;;;;;;24.68;37.31;100692.44;109837;1245;60238;-82
2021/09/13 12:13:28;;;;;;;;;;;;;;;;;;;;;
2021/09/13 12:16:14;;;;;;;10.50;5.40;;;;;;;24.68;37.47;100683.23;110324;1239;72995;-87
2021/09/13 12:19:17;;;;;;;10.40;5.00;;;;;;;24.69;37.49;100677.25;109983;1242;74688;-88
2021/09/13 12:22:13;;;;;;;8.00;5.20;;;;;;;24.69;37.34;100677.90;110085;1243;60334;-81
2021/09/13 12:25:19;;;;;;;;;;;;;;;;;;;;;
2021/09/13 12:27:58;;;;;;;8.60;5.10;;;;;;;24.69;37.48;100678.10;110539;1238;73473;-83
2021/09/13 12:30:49;;;;;;;10.30;5.70;;;;;;;24.70;37.48;100675.34;110479;1239;74511;-86
2021/09/13 12:33:38;;;;;;;7.30;5.10;;;;;;;24.69;37.59;100673.95;110944;1232;60225;-83
2021/09/13 12:36:19;;;;;;;11.00;5.40;;;;;;;24.69;37.69;100674.84;110900;1232;60374;-84
2021/09/13 12:39:30;;;;;;;9.10;5.60;;;;;;;24.69;37.59;100667.80;111083;1232;72610;-82
2021/09/13 12:42:40;;;;;;;10.30;5.70;;;;;;;24.70;37.72;100665.94;111149;1226;73592;-83
2021/09/13 12:45:28;;;;;;;10.50;5.30;;;;;;;24.69;37.85;100674.09;111162;1228;60157;-80
2021/09/13 12:48:50;;;;;;;9.70;5.50;;;;;;;24.70;37.86;100674.81;111351;1228;61421;-79
2021/09/13 12:51:57;;;;;;;9.80;5.00;;;;;;;24.70;37.99;100672.98;111300;1231;72638;-83
2021/09/13 12:54:48;;;;;;;8.70;5.40;;;;;;;24.70;38.01;100669.20;111393;1226;73687;-80
2021/09/13 12:58:02;;;;;;;;;;;;;;;;;;;;;
2021/09/13 13:01:03;;;;;;;7.70;5.20;;;;;;;24.70;38.04;100667.50;110990;1228;60329;-81
2021/09/13 13:04:49;;;;;;;;;;;;;;;;;;;;;
2021/09/13 13:07:29;;;;;;;7.30;4.90;;;;;;;24.71;38.10;100663.34;110768;1230;74783;-82
2021/09/13 13:10:25;;;;;;;;;;;;;;;;;;;;;
2021/09/13 13:13:29;;;;;;;8.20;5.10;;;;;;;24.72;38.18;100653.73;110395;1230;60749;-83
2021/09/13 13:16:54;;;;;;;8.90;5.20;;;;;;;24.72;38.23;100661.94;110689;1236;71612;-81
2021/09/13 13:20:18;;;;;;;7.50;4.80;;;;;;;24.72;38.25;100661.48;110519;1235;72469;-86
2021/09/13 13:23:54;;;;;;;8.40;4.50;;;;;;;24.72;38.41;100663.38;110374;1238;60365;-83
2021/09/13 13:26:56;;;;;;;;;;;;;;;;;;;;;
2021/09/13 13:30:03;;;;;;;7.20;5.20;;;;;;;24.73;38.37;100652.02;110335;1234;72256;-91
2021/09/13 13:33:09;;;;;;;7.80;4.70;;;;;;;24.73;38.41;100653.23;110459;1240;73811;-87
2021/09/13 13:36:02;;;;;;;7.00;4.90;;;;;;;24.73;38.47;100648.90;110047;1234;60409;-81
2021/09/13 13:39:03;;;;;;;;;;;;;;;;;;;;;
2021/09/13 13:41:40;;;;;;;;;;;;;;;;;;;;;
2021/09/13 13:44:59;;;;;;;;;;;;;;;;;;;;;
2021/09/13 13:48:03;;;;;;;8.20;5.10;;;;;;;24.75;38.15;100640.98;110230;1238;60292;-90
2021/09/13 13:51:29;;;;;;;7.80;5.40;;;;;;;24.76;38.32;100642.57;110153;1234;60205;-85
2021/09/13 13:54:21;;;;;;;;;;;;;;;;;;;;;
2021/09/13 13:57:30;;;;;;;;;;;;;;;;;;;;;
2021/09/13 14:00:29;;;;;;;10.10;5.10;;;;;;;24.77;38.40;100645.73;110045;1237;60979;-81
2021/09/13 14:03:11;;;;;;;;;;;;;;;;;;;;;
2021/09/13 14:05:58;;;;;;;7.30;5.30;;;;;;;24.79;38.40;100642.17;110394;1238;72426;-84
2021/09/13 14:08:46;;;;;;;8.40;5.20;;;;;;;24.79;38.30;100642.46;110463;1238;74650;-81
2021/09/13 14:11:34;;;;;;;9.70;5.00;;;;;;;24.80;38.34;100637.55;110365;1230;60278;-82
2021/09/13 14:14:47;;;;;;;8.30;5.00;;;;;;;24.80;38.30;100636.27;110965;1232;60193;-81
2021/09/13 14:17:35;;;;;;;8.20;4.80;;;;;;;24.80;38.46;100633.42;110965;1234;73416;-83
2021/09/13 14:20:38;;;;;;;7.80;5.00;;;;;;;24.80;38.37;100632.15;110959;1235;73877;-85
2021/09/13 14:23:44;;;;;;;;;;;;;;;;;;;;;
2021/09/13 14:26:59;;;;;;;9.20;5.30;;;;;;;24.80;38.25;100636.60;111728;1221;60435;-87
2021/09/13 14:30:28;;;;;;;7.70;4.80;;;;;;;24.79;38.29;100631.27;111830;1225;71088;-89
2021/09/13 14:33:08;;;;;;;8.90;5.50;;;;;;;24.80;38.32;100636.61;111256;1228;72440;-88
2021/09/13 14:36:25;;;;;;;;;;;;;;;;;;;;;
2021/09/13 14:39:25;;;;;;;;;;;;;;;;;;;;;
2021/09/13 14:42:31;;;;;;;8.20;5.30;;;;;;;24.80;38.25;100633.80;111318;1231;64073;-82
2021/09/13 14:46:04;;;;;;;7.40;4.80;;;;;;;24.80;38.49;100634.67;111025;1227;72635;-81
2021/09/13 14:49:01;;;;;;;;;;;;;;;;;;;;;
2021/09/13 14:52:05;;;;;;;7.60;4.60;;;;;;;24.80;38.35;100641.66;110745;1230;61455;-86
2021/09/13 14:55:30;;;;;;;;;;;;;;;;;;;;;
2021/09/13 14:59:15;;;;;;;;;;;;;;;;;;;;;
2021/09/13 15:02:52;;;;;;;;;;;;;;;;;;;;;
2021/09/13 15:05:52;;;;;;;;;;;;;;;;;;;;;
2021/09/13 15:08:59;;;;;;;7.00;4.90;;;;;;;24.78;38.55;100638.61;110281;1235;73442;-88
2021/09/13 15:12:29;;;;;;;;;;;;;;;;;;;;;
2021/09/13 15:15:44;;;;;;;6.80;4.60;;;;;;;24.77;38.52;100638.54;110124;1235;60147;-90
2021/09/13 15:18:56;;;;;;;7.70;5.10;;;;;;;24.77;38.67;100638.88;110237;1235;60263;-85
2021/09/13 15:22:32;;;;;;;;;;;;;;;;;;;;;
2021/09/13 15:25:44;;;;;;;;;;;;;;;;;;;;;
2021/09/13 15:28:25;;;;;;;6.70;4.60;;;;;;;24.76;38.79;100640.78;110108;1238;60357;-80
2021/09/13 15:31:40;;;;;;;7.10;4.60;;;;;;;24.75;38.90;100643.85;109887;1247;60076;-80
2021/09/13 15:34:48;;;;;;;7.30;4.50;;;;;;;24.75;38.83;100648.44;109905;1244;71262;-80
2021/09/13 15:38:19;;;;;;;;;;;;;;;;;;;;;
2021/09/13 15:45:18;;;;;;;7.20;4.20;;;;;;;24.73;39.09;100663.30;108854;1254;60459;-85
2021/09/13 15:48:25;;;;;;;;;;;;;;;;;;;;;
2021/09/13 15:51:41;;;;;;;;;;;;;;;;;;;;;
2021/09/13 15:54:40;;;;;;;6.10;4.40;;;;;;;24.73;39.17;100663.64;108239;1259;60378;-82
2021/09/13 15:58:00;;;;;;;7.10;4.70;;;;;;;24.74;39.12;100659.44;108534;1257;60309;-88
2021/09/13 16:00:57;;;;;;;9.40;4.70;;;;;;;24.74;39.14;100663.95;108864;1254;72850;-86
2021/09/13 16:04:30;;;;;;;;;;;;;;;;;;;;;
2021/09/13 16:07:37;;;;;;;6.10;4.30;;;;;;;24.73;39.15;100664.39;109165;1252;61637;-84
2021/09/13 16:11:18;;;;;;;8.10;4.30;;;;;;;24.73;39.26;100664.92;109199;1244;60468;-87
2021/09/13 16:14:21;;;;;;;;;;;;;;;;;;;;;
2021/09/13 16:17:33;;;;;;;6.70;4.60;;;;;;;24.74;39.35;100670.27;109255;1251;73699;-83
2021/09/13 16:20:55;;;;;;;;;;;;;;;;;;;;;
2021/09/13 16:24:11;;;;;;;6.30;4.30;;;;;;;24.73;39.38;100671.04;110100;1237;60673;-85
2021/09/13 16:27:49;;;;;;;;;;;;;;;;;;;;;
2021/09/13 16:31:29;;;;;;;6.00;4.40;;;;;;;24.74;39.44;100670.06;110140;1244;74199;-86
2021/09/13 16:34:10;;;;;;;;;;;;;;;;;;;;;
2021/09/13 16:37:38;;;;;;;5.90;4.60;;;;;;;24.74;39.57;100672.59;110502;1240;60374;-86
2021/09/13 16:40:47;;;;;;;;;;;;;;;;;;;;;
2021/09/13 16:44:01;;;;;;;8.60;4.80;;;;;;;24.74;39.56;100677.45;110671;1237;73614;-89
2021/09/13 16:50:21;;;;;;;;;;;;;;;;;;;;;
2021/09/13 16:53:56;;;;;;;7.60;4.70;;;;;;;24.73;39.59;100680.02;110887;1235;72766;-86
2021/09/13 16:57:25;;;;;;;6.10;4.30;;;;;;;24.73;39.64;100679.52;110600;1238;73501;-87
2021/09/13 17:00:24;;;;;;;;;;;;;;;;;;;;;
2021/09/13 17:03:59;;;;;;;6.10;4.10;;;;;;;24.74;39.79;100681.98;110606;1235;61289;-89
2021/09/13 17:06:41;;;;;;;;;;;;;;;;;;;;;
2021/09/13 17:09:47;;;;;;;5.60;3.90;;;;;;;24.73;39.72;100685.80;110856;1237;72949;-86
2021/09/13 17:12:55;;;;;;;;;;;;;;;;;;;;;
2021/09/13 17:16:08;;;;;;;5.60;4.00;;;;;;;24.73;39.83;100689.95;111120;1233;61275;-90
2021/09/13 17:19:37;;;;;;;6.70;4.70;;;;;;;24.72;39.76;100694.87;111139;1234;72665;-86